Time;durP1;ratioP1;P1;durP2;ratioP2;P2;SDS_P1;SDS_P2;PMS_P1;PMS_P2;Temp;Humidity;BMP_temperature;BMP_pressure;BME280_temperature;BME280_humidity;BME280_pressure;Samples;Min_cycle;Max_cycle;Signal;HPM_P1;HPM_P2
2022/05/14 00:00:10;;;;;;;11.40;3.10;;;;;;;10.25;85.21;99642.05;105685;1274;61079;-75
2022/05/14 00:03:03;;;;;;;7.20;2.30;;;;;;;10.28;84.93;99649.97;105472;1274;73539;-73
2022/05/14 00:05:54;;;;;;;11.90;2.70;;;;;;;10.31;84.92;99647.23;105417;1273;67817;-72
2022/05/14 00:08:44;;;;;;;12.50;2.60;;;;;;;10.35;84.48;99651.73;105010;1274;72286;-72
2022/05/14 00:14:40;;;;;;;11.50;3.10;;;;;;;10.41;84.11;99656.05;105007;1274;60952;-71
2022/05/14 00:17:28;;;;;;;15.90;3.20;;;;;;;10.43;84.14;99647.68;104869;1274;74470;-73
2022/05/14 00:20:16;;;;;;;12.10;2.70;;;;;;;10.46;83.78;99647.98;104812;1274;68029;-74
2022/05/14 00:23:06;;;;;;;11.00;2.50;;;;;;;10.48;83.55;99649.77;104908;1274;73306;-73
2022/05/14 00:25:54;;;;;;;10.80;2.60;;;;;;;10.50;83.50;99644.81;104718;1275;60502;-74
2022/05/14 00:28:42;;;;;;;11.40;2.30;;;;;;;10.51;82.96;99644.13;104697;1275;60966;-73
2022/05/14 00:31:31;;;;;;;13.10;2.40;;;;;;;10.52;82.98;99643.38;104783;1274;71996;-73
2022/05/14 00:34:19;;;;;;;12.60;2.50;;;;;;;10.53;82.88;99639.23;104705;1274;69627;-74
2022/05/14 00:37:07;;;;;;;13.40;2.60;;;;;;;10.55;82.65;99643.84;104699;1274;72770;-73
2022/05/14 00:39:54;;;;;;;9.10;2.40;;;;;;;10.57;82.25;99641.92;104778;1274;60449;-75
2022/05/14 00:42:42;;;;;;;10.30;2.90;;;;;;;10.59;82.14;99643.35;104808;1274;60380;-74
2022/05/14 00:45:35;;;;;;;9.70;2.40;;;;;;;10.59;82.37;99644.04;105251;1274;74802;-72
2022/05/14 00:48:25;;;;;;;12.60;2.80;;;;;;;10.58;82.46;99638.42;104917;1274;69940;-73
2022/05/14 00:51:20;;;;;;;9.90;2.30;;;;;;;10.59;82.02;99638.57;104776;1274;73402;-75
2022/05/14 00:54:14;;;;;;;14.50;2.60;;;;;;;10.58;81.69;99628.67;104908;1274;60441;-73
2022/05/14 00:57:09;;;;;;;14.10;2.40;;;;;;;10.59;82.31;99629.13;105029;1274;60471;-72
2022/05/14 01:00:00;;;;;;;10.60;2.80;;;;;;;10.60;82.02;99634.52;104737;1274;73771;-73
2022/05/14 01:02:48;;;;;;;12.90;2.90;;;;;;;10.60;81.84;99630.32;104604;1274;68200;-73
2022/05/14 01:05:37;;;;;;;12.40;2.80;;;;;;;10.60;81.93;99633.17;104716;1275;72588;-73
2022/05/14 01:08:25;;;;;;;9.40;2.20;;;;;;;10.59;81.52;99629.83;104876;1274;60596;-73
2022/05/14 01:11:16;;;;;;;15.10;2.80;;;;;;;10.60;81.79;99627.10;104833;1274;61015;-74
2022/05/14 01:14:05;;;;;;;10.10;2.10;;;;;;;10.62;81.60;99627.14;104929;1274;75724;-74
2022/05/14 01:16:54;;;;;;;11.30;2.40;;;;;;;10.63;81.52;99627.06;104941;1274;66848;-73
2022/05/14 01:19:43;;;;;;;13.00;2.40;;;;;;;10.63;81.46;99632.72;104842;1274;74635;-74
2022/05/14 01:22:59;;;;;;;12.80;2.20;;;;;;;10.63;81.25;99632.55;104976;1273;60572;-72
2022/05/14 01:26:29;;;;;;;10.20;2.60;;;;;;;10.62;81.09;99632.95;104995;1274;60539;-73
2022/05/14 01:29:25;;;;;;;9.00;2.50;;;;;;;10.61;81.10;99632.35;104724;1273;74554;-74
2022/05/14 01:32:17;;;;;;;8.10;2.30;;;;;;;10.60;81.16;99629.04;105029;1274;67930;-75
2022/05/14 01:35:07;;;;;;;11.10;2.30;;;;;;;10.61;81.45;99625.65;104860;1274;71698;-74
2022/05/14 01:37:56;;;;;;;12.00;2.20;;;;;;;10.60;81.32;99636.28;104947;1274;60577;-75
2022/05/14 01:40:47;;;;;;;9.60;2.30;;;;;;;10.60;81.15;99633.48;104836;1274;60414;-72
2022/05/14 01:43:35;;;;;;;8.00;2.00;;;;;;;10.61;81.19;99634.67;104570;1273;73418;-72
2022/05/14 01:46:23;;;;;;;11.80;2.40;;;;;;;10.60;81.35;99637.21;104966;1274;69640;-72
2022/05/14 01:49:12;;;;;;;12.20;2.40;;;;;;;10.59;81.40;99630.92;104793;1275;72371;-73
2022/05/14 01:52:01;;;;;;;14.20;2.40;;;;;;;10.58;81.58;99629.80;104794;1274;60507;-73
2022/05/14 01:54:49;;;;;;;13.00;2.60;;;;;;;10.58;81.28;99630.86;105125;1274;60869;-72
2022/05/14 01:57:37;;;;;;;10.40;2.10;;;;;;;10.59;81.40;99631.15;105006;1274;75522;-73
2022/05/14 02:00:26;;;;;;;11.60;2.10;;;;;;;10.57;81.47;99628.40;105101;1273;69751;-71
2022/05/14 02:03:14;;;;;;;13.90;2.30;;;;;;;10.56;81.57;99625.29;105044;1274;74394;-71
2022/05/14 02:06:04;;;;;;;13.70;2.50;;;;;;;10.55;81.54;99618.84;104990;1273;61336;-71
2022/05/14 02:08:53;;;;;;;12.40;2.20;;;;;;;10.53;81.60;99616.69;104743;1274;60487;-72
2022/05/14 02:11:43;;;;;;;12.10;2.30;;;;;;;10.52;81.63;99613.72;105020;1274;75348;-72
2022/05/14 02:14:36;;;;;;;10.20;2.80;;;;;;;10.51;82.09;99603.89;105020;1273;67457;-73
2022/05/14 02:17:24;;;;;;;9.80;2.70;;;;;;;10.50;82.06;99591.05;104863;1274;72059;-71
2022/05/14 02:20:12;;;;;;;12.50;2.60;;;;;;;10.49;81.63;99587.73;104862;1274;60623;-74
2022/05/14 02:23:01;;;;;;;10.70;2.10;;;;;;;10.47;81.90;99583.30;104857;1274;60431;-73
2022/05/14 02:25:49;;;;;;;9.70;2.30;;;;;;;10.46;82.06;99582.15;105024;1274;75575;-72
2022/05/14 02:28:39;;;;;;;11.10;2.70;;;;;;;10.45;81.96;99579.82;104793;1274;69000;-74
2022/05/14 02:31:27;;;;;;;11.70;2.40;;;;;;;10.44;82.17;99585.85;104770;1274;74295;-72
2022/05/14 02:34:16;;;;;;;12.20;2.50;;;;;;;10.43;82.25;99584.92;105003;1274;60559;-71
2022/05/14 02:37:04;;;;;;;11.40;2.30;;;;;;;10.41;82.29;99585.91;104787;1274;60465;-72
2022/05/14 02:39:53;;;;;;;9.50;2.60;;;;;;;10.37;82.23;99582.01;104755;1273;75691;-72
2022/05/14 02:42:42;;;;;;;10.90;2.40;;;;;;;10.35;82.14;99589.13;105111;1273;68662;-73
2022/05/14 02:45:30;;;;;;;14.80;2.70;;;;;;;10.31;82.63;99589.23;104956;1273;73492;-72
2022/05/14 02:48:19;;;;;;;11.40;2.80;;;;;;;10.29;82.67;99588.55;104960;1274;60432;-75
2022/05/14 02:51:07;;;;;;;12.80;2.80;;;;;;;10.27;82.82;99589.27;105206;1273;62119;-75
2022/05/14 02:53:55;;;;;;;12.80;2.50;;;;;;;10.25;82.71;99591.21;104949;1274;73848;-75
2022/05/14 02:56:43;;;;;;;13.90;2.40;;;;;;;10.23;82.98;99593.27;105066;1274;67701;-77
2022/05/14 02:59:31;;;;;;;13.20;2.60;;;;;;;10.20;82.91;99596.53;104801;1274;72731;-75
2022/05/14 03:02:20;;;;;;;12.10;2.60;;;;;;;10.17;82.77;99601.34;104901;1274;60498;-74
2022/05/14 03:05:09;;;;;;;14.40;2.60;;;;;;;10.16;83.04;99596.48;104939;1273;60572;-72
2022/05/14 03:07:57;;;;;;;11.50;2.50;;;;;;;10.14;82.81;99593.86;104995;1273;74559;-75
2022/05/14 03:10:46;;;;;;;8.30;2.00;;;;;;;10.13;82.75;99588.80;105133;1273;69282;-75
2022/05/14 03:13:34;;;;;;;12.50;2.80;;;;;;;10.10;82.69;99593.29;105046;1274;72289;-72
2022/05/14 03:16:23;;;;;;;10.80;2.40;;;;;;;10.10;82.97;99594.92;104878;1274;60501;-73
2022/05/14 03:19:12;;;;;;;12.60;2.90;;;;;;;10.11;82.55;99592.73;104944;1274;60888;-72
2022/05/14 03:22:04;;;;;;;10.20;2.40;;;;;;;10.15;82.63;99587.23;104802;1274;75541;-73
2022/05/14 03:24:52;;;;;;;10.80;2.50;;;;;;;10.19;82.40;99588.65;104735;1274;67435;-72
2022/05/14 03:27:40;;;;;;;8.60;2.30;;;;;;;10.24;82.32;99590.73;104848;1274;73376;-73
2022/05/14 03:30:29;;;;;;;13.90;3.00;;;;;;;10.28;82.15;99588.27;104973;1273;60361;-73
2022/05/14 03:33:17;;;;;;;14.20;3.00;;;;;;;10.31;82.02;99585.66;104966;1273;60424;-72
2022/05/14 03:36:07;;;;;;;9.80;2.20;;;;;;;10.35;81.82;99585.92;105043;1273;73954;-73
2022/05/14 03:38:55;;;;;;;15.40;2.70;;;;;;;10.38;81.29;99581.56;104767;1274;67322;-73
2022/05/14 03:41:44;;;;;;;9.10;2.00;;;;;;;10.42;81.12;99583.73;105031;1274;72393;-73
2022/05/14 03:44:32;;;;;;;12.80;2.60;;;;;;;10.45;80.90;99584.02;104983;1274;60543;-73
2022/05/14 03:47:20;;;;;;;10.30;2.10;;;;;;;10.47;80.31;99576.41;107696;1273;61134;-74
2022/05/14 03:50:09;;;;;;;14.10;2.50;;;;;;;10.49;80.45;99577.83;104814;1274;75837;-73
2022/05/14 03:52:57;;;;;;;10.70;2.20;;;;;;;10.51;80.13;99583.49;105191;1274;66796;-72
2022/05/14 03:55:45;;;;;;;10.70;2.60;;;;;;;10.54;80.10;99581.50;105118;1274;73261;-72
2022/05/14 03:58:34;;;;;;;10.90;2.20;;;;;;;10.56;79.69;99583.96;104900;1274;60998;-72
2022/05/14 04:01:22;;;;;;;10.90;2.10;;;;;;;10.58;79.39;99575.48;104760;1274;60420;-75
2022/05/14 04:04:11;;;;;;;11.10;2.30;;;;;;;10.61;79.27;99573.33;104716;1273;75653;-73
2022/05/14 04:07:00;;;;;;;12.00;2.70;;;;;;;10.61;79.01;99570.55;105179;1274;66880;-73
2022/05/14 04:09:48;;;;;;;12.40;2.20;;;;;;;10.65;78.75;99570.10;105019;1273;73080;-72
2022/05/14 04:12:39;;;;;;;11.90;2.40;;;;;;;10.66;78.77;99573.92;105013;1273;60366;-73
2022/05/14 04:15:28;;;;;;;10.80;2.30;;;;;;;10.67;78.63;99578.64;104829;1273;61263;-74
2022/05/14 04:18:20;;;;;;;12.70;2.50;;;;;;;10.67;79.07;99578.59;104728;1274;73375;-72
2022/05/14 04:21:09;;;;;;;10.00;2.10;;;;;;;10.69;78.93;99575.05;104985;1273;68940;-73
2022/05/14 04:24:00;;;;;;;10.40;2.50;;;;;;;10.71;79.10;99575.11;104617;1274;73483;-71
2022/05/14 04:26:48;;;;;;;9.00;2.30;;;;;;;10.69;79.53;99575.90;104715;1273;60646;-71
2022/05/14 04:29:36;;;;;;;9.20;2.30;;;;;;;10.68;79.61;99576.56;104760;1274;60296;-74
2022/05/14 04:32:24;;;;;;;13.60;3.00;;;;;;;10.65;79.86;99576.09;104801;1273;75549;-73
2022/05/14 04:35:15;;;;;;;9.40;2.50;;;;;;;10.59;80.04;99574.65;104701;1273;67903;-70
2022/05/14 04:38:06;;;;;;;7.20;2.10;;;;;;;10.59;80.12;99578.58;104755;1274;73506;-74
2022/05/14 04:40:54;;;;;;;9.00;2.60;;;;;;;10.58;80.43;99581.15;104017;1274;1003020;-74
2022/05/14 04:43:42;;;;;;;11.70;2.60;;;;;;;10.58;80.42;99577.77;104780;1274;61205;-73
2022/05/14 04:46:30;;;;;;;10.70;2.60;;;;;;;10.58;80.15;99576.75;104947;1273;74671;-73
2022/05/14 04:49:18;;;;;;;8.60;2.40;;;;;;;10.56;80.37;99581.09;104867;1274;67772;-72
2022/05/14 04:52:08;;;;;;;11.40;2.60;;;;;;;10.56;80.71;99579.55;104738;1274;73496;-74
2022/05/14 04:54:57;;;;;;;10.50;2.40;;;;;;;10.56;80.55;99583.98;104846;1274;61192;-71
2022/05/14 04:57:45;;;;;;;12.80;3.10;;;;;;;10.56;79.96;99579.58;104938;1273;62312;-73
2022/05/14 05:00:36;;;;;;;13.50;2.80;;;;;;;10.59;79.53;99575.23;104767;1274;74719;-70
2022/05/14 05:03:27;;;;;;;10.40;2.30;;;;;;;10.78;78.70;99584.95;104695;1274;69616;-71
2022/05/14 05:06:20;;;;;;;9.50;2.70;;;;;;;11.13;77.80;99582.59;104739;1274;72427;-72
2022/05/14 05:09:08;;;;;;;13.40;2.90;;;;;;;11.57;75.78;99577.19;105101;1274;60518;-72
2022/05/14 05:11:56;;;;;;;10.90;2.50;;;;;;;11.86;73.33;99574.23;104906;1273;60531;-72
2022/05/14 05:14:47;;;;;;;11.40;2.40;;;;;;;12.68;70.80;99566.48;104537;1274;75595;-73
2022/05/14 05:17:36;;;;;;;13.30;2.80;;;;;;;14.30;65.46;99558.59;104831;1274;68492;-73
2022/05/14 05:20:24;;;;;;;11.90;2.70;;;;;;;15.23;60.31;99551.41;104828;1272;74521;-73
2022/05/14 05:23:15;;;;;;;11.70;2.70;;;;;;;16.23;55.57;99544.64;104722;1274;60489;-73
2022/05/14 05:26:03;;;;;;;11.30;2.60;;;;;;;16.88;55.03;99547.73;104924;1273;60569;-72
2022/05/14 05:28:51;;;;;;;12.20;2.60;;;;;;;16.97;53.36;99539.05;104918;1274;75687;-73
2022/05/14 05:31:39;;;;;;;13.30;2.80;;;;;;;17.86;51.00;99539.29;104859;1273;68835;-72
2022/05/14 05:34:46;;;;;;;12.50;2.60;;;;;;;18.21;49.75;99541.65;104870;1273;72314;-74
2022/05/14 05:37:35;;;;;;;11.30;2.80;;;;;;;17.25;50.70;99543.73;104840;1274;60502;-73
2022/05/14 05:40:24;;;;;;;11.10;2.40;;;;;;;16.52;52.26;99546.53;105079;1273;60364;-73
2022/05/14 05:43:12;;;;;;;10.30;2.10;;;;;;;15.86;54.38;99557.04;104968;1274;75157;-71
2022/05/14 05:46:01;;;;;;;12.90;2.70;;;;;;;15.24;55.80;99561.50;105719;1273;68552;-72
2022/05/14 05:48:48;;;;;;;10.80;2.60;;;;;;;14.60;57.38;99566.27;105027;1274;73372;-76
2022/05/14 05:51:37;;;;;;;13.90;3.30;;;;;;;13.92;59.31;99577.52;104934;1273;60665;-73
2022/05/14 05:57:39;;;;;;;14.50;2.80;;;;;;;13.10;62.63;99576.05;105250;1273;74060;-75
2022/05/14 06:00:28;;;;;;;15.60;3.10;;;;;;;12.85;63.75;99578.06;104719;1273;69558;-74
2022/05/14 06:03:16;;;;;;;12.10;2.50;;;;;;;12.59;64.88;99570.72;105196;1273;73503;-74
2022/05/14 06:06:05;;;;;;;13.80;3.00;;;;;;;12.40;65.73;99578.36;104555;1274;60582;-70
2022/05/14 06:08:54;;;;;;;11.50;3.00;;;;;;;12.22;66.81;99574.18;104965;1274;60442;-75
2022/05/14 06:11:42;;;;;;;12.00;2.90;;;;;;;12.12;67.20;99569.92;104212;1274;1003375;-76
2022/05/14 06:14:30;;;;;;;12.50;3.00;;;;;;;12.09;67.50;99578.30;105222;1273;66707;-76
2022/05/14 06:17:18;;;;;;;13.40;2.80;;;;;;;12.03;67.99;99572.31;105402;1273;72875;-75
2022/05/14 06:20:11;;;;;;;12.90;3.40;;;;;;;11.96;68.11;99574.71;105010;1274;61087;-75
2022/05/14 06:22:59;;;;;;;15.70;3.10;;;;;;;11.91;68.48;99572.11;105033;1274;60507;-75
2022/05/14 06:25:46;;;;;;;11.40;2.60;;;;;;;11.87;68.81;99577.33;104955;1273;72832;-75
2022/05/14 06:28:35;;;;;;;17.00;3.50;;;;;;;11.80;69.38;99580.97;105175;1274;68046;-73
2022/05/14 06:31:22;;;;;;;14.40;3.40;;;;;;;11.77;69.56;99582.15;104894;1274;70568;-75
2022/05/14 06:34:11;;;;;;;14.20;3.10;;;;;;;11.79;69.64;99578.61;104638;1273;60772;-69
2022/05/14 06:37:00;;;;;;;17.20;5.80;;;;;;;11.71;70.19;99579.98;104821;1273;62013;-71
2022/05/14 06:39:48;;;;;;;16.10;4.50;;;;;;;11.66;70.38;99574.05;104864;1273;75916;-69
2022/05/14 06:42:37;;;;;;;15.10;3.00;;;;;;;11.66;70.57;99575.33;104681;1274;68661;-70
2022/05/14 06:45:26;;;;;;;16.80;3.80;;;;;;;11.67;70.81;99578.27;104913;1274;74475;-71
2022/05/14 06:48:15;;;;;;;20.40;9.50;;;;;;;11.62;71.78;99577.80;104748;1272;60381;-69
2022/05/14 06:51:08;;;;;;;16.00;4.30;;;;;;;11.50;74.50;99581.17;104977;1273;60588;-69
2022/05/14 06:54:03;;;;;;;16.00;4.10;;;;;;;11.34;76.13;99574.43;105061;1273;74444;-70
2022/05/14 06:56:50;;;;;;;17.30;4.90;;;;;;;11.21;77.39;99572.33;104912;1273;69586;-70
2022/05/14 06:59:38;;;;;;;16.00;3.60;;;;;;;11.13;78.39;99568.94;105208;1273;72983;-69
2022/05/14 07:02:28;;;;;;;14.20;3.60;;;;;;;11.07;79.11;99572.48;104911;1273;60604;-68
2022/05/14 07:08:24;;;;;;;15.60;4.00;;;;;;;10.85;81.53;99581.18;104944;1273;75400;-67
2022/05/14 07:11:12;;;;;;;15.50;3.70;;;;;;;10.78;81.46;99583.52;104881;1273;67855;-70
2022/05/14 07:14:02;;;;;;;13.70;3.60;;;;;;;10.66;83.46;99584.90;105159;1273;71567;-68
2022/05/14 07:16:51;;;;;;;11.90;4.20;;;;;;;10.64;83.28;99584.16;105154;1273;60470;-68
2022/05/14 07:19:39;;;;;;;17.10;4.60;;;;;;;10.64;84.10;99584.72;104719;1273;62114;-70
2022/05/14 07:22:28;;;;;;;16.10;4.30;;;;;;;10.67;84.25;99585.29;104815;1274;73998;-68
2022/05/14 07:25:16;;;;;;;22.30;7.10;;;;;;;10.67;84.91;99589.83;105113;1273;69971;-71
2022/05/14 07:28:05;;;;;;;14.10;5.50;;;;;;;10.66;84.50;99594.14;104656;1273;73574;-71
2022/05/14 07:30:53;;;;;;;14.90;3.70;;;;;;;10.62;85.47;99591.63;104931;1272;61291;-69
2022/05/14 07:33:41;;;;;;;11.90;4.50;;;;;;;10.60;85.84;99600.66;104755;1276;60983;-69
2022/05/14 07:36:33;;;;;;;12.40;3.60;;;;;;;10.66;85.74;99603.72;104830;1276;74079;-71
2022/05/14 07:39:27;;;;;;;13.40;4.10;;;;;;;10.76;85.85;99606.23;104515;1276;69239;-69
2022/05/14 07:42:28;;;;;;;11.80;3.40;;;;;;;11.00;85.67;99601.17;104778;1276;72922;-69
2022/05/14 07:45:27;;;;;;;16.30;4.30;;;;;;;11.73;83.45;99596.00;104726;1277;60492;-71
2022/05/14 07:48:21;;;;;;;15.30;4.00;;;;;;;12.60;80.32;99593.61;105040;1276;60430;-70
2022/05/14 07:51:11;;;;;;;11.90;4.10;;;;;;;13.22;77.27;99597.93;104574;1276;75516;-70
2022/05/14 07:53:59;;;;;;;15.30;5.50;;;;;;;13.78;75.38;99598.73;104817;1275;68048;-70
2022/05/14 07:56:47;;;;;;;16.80;4.40;;;;;;;14.63;71.66;99598.77;104476;1276;73467;-71
2022/05/14 07:59:36;;;;;;;16.50;4.00;;;;;;;15.11;68.26;99590.89;105046;1276;60473;-73
2022/05/14 08:02:36;;;;;;;16.00;3.90;;;;;;;15.98;65.66;99593.52;104780;1276;60447;-71
2022/05/14 08:05:24;;;;;;;17.40;3.90;;;;;;;16.54;63.23;99577.33;104784;1274;75573;-71
2022/05/14 08:08:12;;;;;;;15.30;3.60;;;;;;;17.32;59.81;99579.19;105081;1273;68067;-72
2022/05/14 08:11:01;;;;;;;13.90;3.10;;;;;;;17.80;58.07;99571.05;104790;1273;73460;-72
2022/05/14 08:13:54;;;;;;;10.90;3.30;;;;;;;17.73;57.18;99564.60;105203;1273;60921;-75
2022/05/14 08:16:42;;;;;;;15.50;5.10;;;;;;;17.38;57.63;99567.02;105077;1273;60536;-74
2022/05/14 08:19:30;;;;;;;14.10;4.10;;;;;;;17.40;57.74;99567.70;105111;1273;74137;-75
2022/05/14 08:25:30;;;;;;;15.40;3.00;;;;;;;16.75;58.22;99570.06;104959;1273;75181;-73
2022/05/14 08:28:19;;;;;;;16.00;3.60;;;;;;;16.52;59.64;99566.61;105037;1273;60797;-72
2022/05/14 08:31:07;;;;;;;12.60;3.30;;;;;;;16.70;59.46;99569.44;104859;1273;60355;-72
2022/05/14 08:33:55;;;;;;;13.60;3.00;;;;;;;16.57;59.12;99570.44;104848;1273;73974;-72
2022/05/14 08:36:42;;;;;;;14.60;3.20;;;;;;;16.14;59.85;99571.77;104988;1273;67594;-74
2022/05/14 08:39:30;;;;;;;14.30;3.10;;;;;;;15.74;61.59;99571.60;104996;1274;71864;-73
2022/05/14 08:42:18;;;;;;;15.90;3.80;;;;;;;15.45;62.69;99573.58;105178;1274;60555;-72
2022/05/14 08:45:11;;;;;;;15.90;3.40;;;;;;;15.43;63.21;99577.15;104940;1274;60462;-71
2022/05/14 08:48:13;;;;;;;13.90;4.10;;;;;;;15.07;63.59;99581.62;105341;1274;75518;-70
2022/05/14 08:51:08;;;;;;;15.30;3.50;;;;;;;15.04;63.92;99584.49;105132;1273;69672;-72
2022/05/14 08:53:56;;;;;;;14.10;2.90;;;;;;;15.00;63.70;99580.05;104956;1274;74344;-72
2022/05/14 08:57:20;;;;;;;14.00;3.00;;;;;;;14.82;64.13;99580.13;104914;1273;60582;-73
2022/05/14 09:00:09;;;;;;;13.30;2.90;;;;;;;14.53;64.20;99584.83;105268;1274;62040;-73
2022/05/14 09:02:58;;;;;;;17.20;3.10;;;;;;;14.66;64.60;99587.61;104980;1273;73705;-72
2022/05/14 09:05:58;;;;;;;13.50;3.60;;;;;;;15.08;62.65;99584.65;104830;1274;66874;-71
2022/05/14 09:08:46;;;;;;;12.50;3.70;;;;;;;14.96;62.92;99593.73;104912;1273;391309;-71
2022/05/14 09:11:52;;;;;;;16.70;3.50;;;;;;;14.86;62.77;99591.39;104935;1274;60485;-69
2022/05/14 09:14:39;;;;;;;10.80;2.90;;;;;;;14.84;63.02;99592.11;105151;1272;62096;-72
2022/05/14 09:17:30;;;;;;;14.60;3.00;;;;;;;14.78;63.47;99596.81;105094;1274;75230;-76
2022/05/14 09:20:25;;;;;;;12.00;2.90;;;;;;;14.63;63.52;99602.55;104984;1274;68589;-75
2022/05/14 09:23:33;;;;;;;12.30;3.60;;;;;;;14.52;64.32;99602.02;105083;1273;74470;-74
2022/05/14 09:26:33;;;;;;;12.60;3.30;;;;;;;14.38;64.71;99598.64;104720;1274;60460;-74
2022/05/14 09:29:34;;;;;;;11.10;3.10;;;;;;;14.32;64.91;99606.05;105150;1273;60572;-74
2022/05/14 09:32:21;;;;;;;13.30;2.80;;;;;;;14.35;65.20;99606.73;104977;1274;75428;-73
2022/05/14 09:35:17;;;;;;;12.70;2.90;;;;;;;14.66;64.89;99595.86;105065;1273;66810;-76
2022/05/14 09:38:18;;;;;;;14.90;3.20;;;;;;;14.83;63.65;99604.30;104944;1273;72888;-76
2022/05/14 09:41:22;;;;;;;12.70;3.10;;;;;;;14.75;63.56;99598.69;105302;1273;60330;-73
2022/05/14 09:44:39;;;;;;;12.90;3.10;;;;;;;14.82;63.22;99601.05;104839;1273;61608;-74
2022/05/14 09:47:31;;;;;;;15.40;3.10;;;;;;;14.95;62.70;99596.34;105232;1273;75379;-72
2022/05/14 09:50:42;;;;;;;10.20;2.70;;;;;;;15.09;60.93;99595.70;104911;1273;66487;-72
2022/05/14 09:53:37;;;;;;;13.50;2.80;;;;;;;14.99;60.83;99594.98;105324;1273;71523;-73
2022/05/14 09:56:30;;;;;;;11.90;2.90;;;;;;;14.89;61.32;99599.39;104880;1274;60512;-72
2022/05/14 09:59:48;;;;;;;15.50;3.10;;;;;;;14.78;61.88;99595.17;105077;1273;60449;-74
2022/05/14 10:02:58;;;;;;;15.20;3.40;;;;;;;14.59;62.76;99608.69;104759;1273;74439;-74
2022/05/14 10:06:10;;;;;;;11.80;2.70;;;;;;;14.35;62.75;99608.30;104704;1273;69754;-73
2022/05/14 10:09:16;;;;;;;13.30;2.60;;;;;;;14.23;63.61;99614.08;105066;1273;74388;-72
2022/05/14 10:12:33;;;;;;;13.20;2.70;;;;;;;14.42;62.99;99618.58;104723;1273;60607;-75
2022/05/14 10:15:52;;;;;;;10.30;2.50;;;;;;;14.80;61.84;99617.68;104687;1273;60737;-72
2022/05/14 10:19:07;;;;;;;11.40;2.70;;;;;;;15.04;60.56;99612.29;104684;1273;74791;-75
2022/05/14 10:29:46;;;;;;;12.70;2.80;;;;;;;15.54;57.49;99614.09;104954;1273;60613;-73
2022/05/14 10:32:37;;;;;;;11.30;2.60;;;;;;;15.59;57.13;99612.33;104726;1273;60486;-70
2022/05/14 10:35:57;;;;;;;10.70;2.20;;;;;;;15.61;56.45;99615.73;104848;1273;73685;-73
2022/05/14 10:38:50;;;;;;;11.40;2.00;;;;;;;15.48;54.05;99607.56;104952;1273;68390;-73
2022/05/14 10:41:52;;;;;;;12.50;2.20;;;;;;;15.90;52.72;99620.20;104606;1273;72670;-73
2022/05/14 10:44:51;;;;;;;9.50;2.10;;;;;;;16.28;51.73;99611.64;104895;1273;60422;-75
2022/05/14 10:47:47;;;;;;;10.00;2.20;;;;;;;17.01;50.98;99607.91;104668;1273;61011;-75
2022/05/14 10:50:34;;;;;;;11.60;2.40;;;;;;;18.83;46.38;99599.52;104600;1273;74883;-72
2022/05/14 10:53:22;;;;;;;11.10;2.20;;;;;;;20.62;41.76;99600.20;104685;1273;68667;-73
2022/05/14 10:56:28;;;;;;;12.00;1.80;;;;;;;20.55;40.89;99600.95;104575;1273;74702;-74
2022/05/14 10:59:32;;;;;;;8.60;1.80;;;;;;;19.70;42.00;99599.63;105049;1273;60584;-74
2022/05/14 11:02:32;;;;;;;9.30;1.80;;;;;;;18.90;43.58;99601.10;104643;1273;60337;-74
2022/05/14 11:05:31;;;;;;;11.10;2.50;;;;;;;19.20;43.66;99611.50;104656;1273;75582;-75
2022/05/14 11:08:41;;;;;;;9.50;2.10;;;;;;;18.83;44.24;99605.77;104742;1273;68582;-76
2022/05/14 11:11:32;;;;;;;10.40;2.30;;;;;;;18.64;44.77;99611.52;105079;1273;74590;-74
2022/05/14 11:14:20;;;;;;;10.10;2.10;;;;;;;18.10;45.42;99614.23;104815;1273;60384;-75
2022/05/14 11:17:20;;;;;;;11.60;2.20;;;;;;;17.47;47.00;99619.72;104780;1273;60614;-74
2022/05/14 11:20:18;;;;;;;9.50;2.10;;;;;;;17.00;48.57;99619.31;105061;1273;74435;-73
2022/05/14 11:23:12;;;;;;;12.10;2.30;;;;;;;16.56;49.99;99620.63;104485;1273;68759;-73
2022/05/14 11:26:13;;;;;;;12.30;2.30;;;;;;;16.24;51.37;99630.13;104710;1273;74622;-73
2022/05/14 11:29:14;;;;;;;11.80;2.40;;;;;;;16.30;51.83;99630.29;104889;1273;60409;-74
2022/05/14 11:32:16;;;;;;;12.20;2.40;;;;;;;17.26;50.26;99626.65;104985;1273;60887;-74
2022/05/14 11:35:05;;;;;;;9.50;2.20;;;;;;;17.53;49.87;99629.18;105443;1273;74456;-74
2022/05/14 11:37:53;;;;;;;11.90;2.20;;;;;;;17.36;49.49;99631.23;105146;1273;68164;-73
2022/05/14 11:40:42;;;;;;;11.60;2.20;;;;;;;17.22;49.81;99637.55;104871;1273;74497;-75
2022/05/14 11:43:36;;;;;;;10.00;2.20;;;;;;;16.98;49.82;99633.35;105008;1274;60487;-73
2022/05/14 11:46:48;;;;;;;12.60;2.50;;;;;;;16.93;50.41;99632.70;105162;1275;62027;-76
2022/05/14 11:49:44;;;;;;;13.90;2.40;;;;;;;16.96;50.15;99638.01;105102;1273;72682;-73
2022/05/14 11:52:58;;;;;;;12.00;2.50;;;;;;;16.88;48.96;99635.27;104977;1273;69562;-73
2022/05/14 11:55:58;;;;;;;13.30;2.90;;;;;;;16.80;49.90;99637.23;105328;1273;72896;-76
2022/05/14 11:59:40;;;;;;;14.10;2.70;;;;;;;16.85;50.01;99635.35;105099;1273;60460;-73
2022/05/14 12:02:47;;;;;;;11.10;2.40;;;;;;;16.95;49.58;99643.21;104430;1279;62274;-70
2022/05/14 12:06:03;;;;;;;11.60;2.10;;;;;;;16.75;50.47;99651.21;104659;1279;75346;-72
2022/05/14 12:09:31;;;;;;;11.70;2.20;;;;;;;16.49;51.45;99656.82;104794;1279;67053;-72
2022/05/14 12:12:44;;;;;;;15.50;2.70;;;;;;;16.21;52.49;99661.17;104611;1279;72926;-73
2022/05/14 12:15:32;;;;;;;11.80;2.70;;;;;;;16.14;53.16;99663.70;104958;1279;60781;-74
2022/05/14 12:18:20;;;;;;;11.00;2.40;;;;;;;16.08;53.42;99670.84;104698;1279;62083;-74
2022/05/14 12:21:10;;;;;;;12.40;2.70;;;;;;;15.89;53.91;99664.86;104267;1279;75691;-74
2022/05/14 12:23:59;;;;;;;14.30;2.70;;;;;;;15.80;54.25;99663.10;104767;1279;68110;-73
2022/05/14 12:26:46;;;;;;;12.60;2.60;;;;;;;15.84;54.58;99666.63;104623;1279;71619;-72
2022/05/14 12:29:36;;;;;;;16.30;3.00;;;;;;;15.98;54.37;99666.69;104624;1279;60631;-74
2022/05/14 12:35:33;;;;;;;13.30;3.10;;;;;;;16.30;53.93;99670.47;104600;1279;75660;-75
2022/05/14 12:38:36;;;;;;;11.40;2.30;;;;;;;16.38;52.61;99667.70;104560;1277;66642;-75
2022/05/14 12:41:41;;;;;;;10.50;2.10;;;;;;;16.39;50.33;99673.46;105497;1272;73507;-74
2022/05/14 12:44:44;;;;;;;12.50;2.30;;;;;;;16.41;49.98;99676.09;105209;1272;60490;-74
2022/05/14 12:47:39;;;;;;;11.50;2.20;;;;;;;16.47;49.54;99674.14;105144;1274;60489;-76
2022/05/14 12:50:56;;;;;;;12.20;2.60;;;;;;;16.54;49.68;99664.81;105316;1271;72655;-76
2022/05/14 12:53:45;;;;;;;10.70;2.10;;;;;;;16.49;48.72;99672.14;106078;1271;67796;-73
2022/05/14 12:56:33;;;;;;;12.30;2.10;;;;;;;16.49;47.75;99673.48;108181;1273;73196;-77
2022/05/14 12:59:21;;;;;;;12.40;2.10;;;;;;;16.60;46.88;99675.83;108354;1271;59407;-76
2022/05/14 13:02:34;;;;;;;10.90;2.10;;;;;;;16.69;47.07;99671.80;108351;1271;58498;-75
2022/05/14 13:05:54;;;;;;;9.60;1.60;;;;;;;16.75;47.15;99671.48;107778;1271;72945;-76
2022/05/14 13:08:47;;;;;;;12.70;2.00;;;;;;;16.88;46.30;99673.02;105269;1272;68656;-75
2022/05/14 13:11:44;;;;;;;12.10;2.10;;;;;;;17.09;46.23;99673.18;105808;1271;72662;-75
2022/05/14 13:14:36;;;;;;;11.70;2.00;;;;;;;17.27;45.75;99677.25;106137;1271;60552;-74
2022/05/14 13:17:39;;;;;;;11.20;2.00;;;;;;;17.32;45.57;99665.16;106351;1271;60412;-74
2022/05/14 13:20:34;;;;;;;11.20;2.40;;;;;;;17.34;45.64;99673.20;105842;1271;72811;-76
2022/05/14 13:23:22;;;;;;;12.90;3.00;;;;;;;17.25;46.00;99675.52;105012;1271;68027;-77
2022/05/14 13:26:31;;;;;;;15.00;4.00;;;;;;;17.13;46.69;99673.77;105218;1271;73222;-77
2022/05/14 13:29:22;;;;;;;14.30;2.80;;;;;;;17.11;45.54;99671.27;104957;1273;60520;-77
2022/05/14 13:32:18;;;;;;;12.10;2.50;;;;;;;17.25;45.53;99676.26;105258;1271;61940;-77
2022/05/14 13:38:41;;;;;;;13.20;2.40;;;;;;;17.14;44.89;99671.00;105392;1271;68604;-75
2022/05/14 13:41:39;;;;;;;12.00;2.30;;;;;;;17.07;45.03;99677.76;105556;1271;72946;-74